createdAt,value
2022-11-17T00:00:24.684Z,75646.72
2022-11-17T00:03:05.862Z,75667.50
2022-11-17T00:05:36.323Z,75675.81
2022-11-17T00:08:04.084Z,75673.75
2022-11-17T00:10:32.167Z,75671.66
2022-11-17T00:13:17.488Z,75671.66
2022-11-17T00:15:45.788Z,75684.16
2022-11-17T00:18:31.563Z,75682.06
2022-11-17T00:21:23.612Z,75675.81
2022-11-17T00:23:51.748Z,75671.66
2022-11-17T00:26:21.575Z,75679.97
2022-11-17T00:28:53.387Z,75671.66
2022-11-17T00:31:39.933Z,75667.50
2022-11-17T00:34:08.496Z,75667.50
2022-11-17T00:36:41.965Z,75667.50
2022-11-17T00:39:11.400Z,75669.59
2022-11-17T00:41:39.975Z,75692.47
2022-11-17T00:44:08.284Z,75696.63
2022-11-17T00:46:37.781Z,75696.63
2022-11-17T00:49:06.274Z,75702.84
2022-11-17T00:51:34.932Z,75717.41
2022-11-17T00:54:05.167Z,75704.94
2022-11-17T00:56:33.744Z,75698.69
2022-11-17T00:59:01.626Z,75721.56
2022-11-17T01:01:30.494Z,75721.56
2022-11-17T01:04:04.000Z,75717.41
2022-11-17T01:06:33.720Z,75704.94
2022-11-17T01:09:02.511Z,75692.47
2022-11-17T01:11:31.931Z,75696.63
2022-11-17T01:14:01.267Z,75696.63
2022-11-17T01:16:31.175Z,75682.06
2022-11-17T01:19:01.232Z,75688.31
2022-11-17T01:21:31.553Z,75677.91
2022-11-17T01:24:01.144Z,75694.53
2022-11-17T01:26:31.231Z,75709.09
2022-11-17T01:29:01.445Z,75700.78
2022-11-17T01:31:31.931Z,75700.78
2022-11-17T01:34:00.176Z,75696.63
2022-11-17T01:36:30.370Z,75696.63
2022-11-17T01:38:58.267Z,75682.06
2022-11-17T01:41:28.303Z,75692.47
2022-11-17T01:43:58.016Z,75704.94
2022-11-17T01:46:32.680Z,75704.94
2022-11-17T01:49:07.256Z,75709.09
2022-11-17T01:51:39.724Z,75713.25
2022-11-17T01:54:09.239Z,75709.09
2022-11-17T01:56:44.394Z,75713.25
2022-11-17T01:59:18.205Z,75717.41
2022-11-17T02:01:56.489Z,75723.63
2022-11-17T02:04:26.969Z,75719.47
2022-11-17T02:07:01.603Z,75704.94
2022-11-17T02:09:30.767Z,75713.25
2022-11-17T02:11:59.913Z,75713.25
2022-11-17T02:14:27.676Z,75711.16
2022-11-17T02:16:59.007Z,75713.25
2022-11-17T02:19:36.083Z,75713.25
2022-11-17T02:22:33.578Z,75702.84
2022-11-17T02:25:26.684Z,75696.63
2022-11-17T02:28:07.129Z,75684.16
2022-11-17T02:30:42.334Z,75679.97
2022-11-17T02:33:17.520Z,75679.97
2022-11-17T02:35:53.140Z,75679.97
2022-11-17T02:38:30.788Z,75692.47
2022-11-17T02:41:05.907Z,75696.63
2022-11-17T02:44:00.688Z,75688.31
2022-11-17T02:46:31.651Z,75692.47
2022-11-17T02:49:04.745Z,75700.78
2022-11-17T02:51:35.757Z,75713.25
2022-11-17T02:54:04.643Z,75715.31
2022-11-17T02:56:32.400Z,75721.56
2022-11-17T02:59:06.041Z,75707.00
2022-11-17T03:01:59.953Z,75704.94
2022-11-17T03:04:36.975Z,75711.16
2022-11-17T03:07:19.053Z,75698.69
2022-11-17T03:09:53.844Z,75717.41
2022-11-17T03:12:25.870Z,75713.25
2022-11-17T03:15:02.270Z,75713.25
2022-11-17T03:17:35.197Z,75713.25
2022-11-17T03:20:13.397Z,75715.31
2022-11-17T03:22:49.782Z,75729.88
2022-11-17T03:25:21.598Z,75717.41
2022-11-17T03:27:54.389Z,75717.41
2022-11-17T03:30:25.550Z,75717.41
2022-11-17T03:32:57.956Z,75717.41
2022-11-17T03:35:30.745Z,75721.56
2022-11-17T03:38:05.379Z,75725.72
2022-11-17T03:40:36.279Z,75729.88
2022-11-17T03:43:08.444Z,75725.72
2022-11-17T03:45:41.744Z,75721.56
2022-11-17T03:48:15.275Z,75727.78
2022-11-17T03:50:48.682Z,75725.72
2022-11-17T03:53:16.744Z,75729.88
2022-11-17T03:55:52.464Z,75727.78
2022-11-17T03:58:23.441Z,75740.28
2022-11-17T04:00:54.928Z,75744.44
2022-11-17T04:03:23.651Z,75744.44
2022-11-17T04:05:51.893Z,75738.19
2022-11-17T04:08:20.113Z,75752.75
2022-11-17T04:11:05.652Z,75756.91
2022-11-17T04:13:51.088Z,75754.81
2022-11-17T04:16:20.491Z,75756.91
2022-11-17T04:18:48.337Z,75758.97
2022-11-17T04:21:16.312Z,75765.22
2022-11-17T04:23:44.124Z,75761.06
2022-11-17T04:26:29.935Z,75763.13
2022-11-17T04:28:57.745Z,75773.53
2022-11-17T04:31:28.537Z,75771.44
2022-11-17T04:33:58.304Z,75771.44
2022-11-17T04:36:28.236Z,75779.75
2022-11-17T04:38:57.241Z,75792.25
2022-11-17T04:41:44.832Z,75800.56
2022-11-17T04:44:15.243Z,75804.72
2022-11-17T04:46:45.945Z,75792.25
2022-11-17T04:49:15.218Z,75802.63
2022-11-17T04:51:43.624Z,75804.72
2022-11-17T04:54:13.623Z,75800.56
2022-11-17T04:56:42.861Z,75788.09
2022-11-17T04:59:10.879Z,75804.72
2022-11-17T05:01:39.064Z,75800.56
2022-11-17T05:04:10.412Z,75790.16
2022-11-17T05:06:40.321Z,75792.25
2022-11-17T05:09:10.563Z,75783.91
2022-11-17T05:11:56.212Z,75775.59
2022-11-17T05:14:25.861Z,75769.38
2022-11-17T05:17:10.409Z,75775.59
2022-11-17T05:19:42.127Z,75773.53
2022-11-17T05:22:25.727Z,75773.53
2022-11-17T05:24:53.696Z,75779.75
2022-11-17T05:27:22.563Z,75779.75
2022-11-17T05:29:50.300Z,75775.59
2022-11-17T05:32:18.754Z,75765.22
2022-11-17T05:34:47.949Z,75771.44
2022-11-17T05:37:16.192Z,75771.44
2022-11-17T05:39:44.059Z,75773.53
2022-11-17T05:42:12.042Z,75767.28
2022-11-17T05:44:39.989Z,75761.06
2022-11-17T05:47:08.272Z,75754.81
2022-11-17T05:49:35.977Z,75771.44
2022-11-17T05:52:05.722Z,75767.28
2022-11-17T05:54:33.563Z,75771.44
2022-11-17T05:57:07.370Z,75765.22
2022-11-17T05:59:40.839Z,75767.28
2022-11-17T06:02:13.047Z,75758.97
2022-11-17T06:04:41.107Z,75763.13
2022-11-17T06:07:11.105Z,75765.22
2022-11-17T06:09:42.958Z,75775.59
2022-11-17T06:12:11.968Z,75769.38
2022-11-17T06:14:40.092Z,75769.38
2022-11-17T06:17:21.876Z,75771.44
2022-11-17T06:19:54.701Z,75771.44
2022-11-17T06:22:26.311Z,75763.13
2022-11-17T06:24:55.262Z,75758.97
2022-11-17T06:27:25.488Z,75771.44
2022-11-17T06:29:54.888Z,75767.28
2022-11-17T06:32:23.501Z,75771.44
2022-11-17T06:34:55.735Z,75777.69
2022-11-17T06:37:26.427Z,75779.75
2022-11-17T06:39:54.302Z,75775.59
2022-11-17T06:42:42.748Z,75771.44
2022-11-17T06:45:12.196Z,75790.16
2022-11-17T06:47:40.329Z,75781.84
2022-11-17T06:50:09.101Z,75792.25
2022-11-17T06:52:39.146Z,75788.09
2022-11-17T06:55:08.572Z,75783.91
2022-11-17T06:57:36.727Z,75808.88
2022-11-17T07:00:05.960Z,75796.41
2022-11-17T07:02:34.205Z,75808.88
2022-11-17T07:05:01.927Z,75796.41
2022-11-17T07:07:30.091Z,75800.56
2022-11-17T07:09:59.248Z,75796.41
2022-11-17T07:12:27.201Z,75792.25
2022-11-17T07:14:55.047Z,75796.41
2022-11-17T07:17:23.139Z,75800.56
2022-11-17T07:19:50.825Z,75800.56
2022-11-17T07:22:18.907Z,75815.09
2022-11-17T07:24:46.719Z,75813.03
2022-11-17T07:27:16.015Z,75804.72
2022-11-17T07:29:43.839Z,75817.19
2022-11-17T07:32:13.725Z,75833.81
2022-11-17T07:34:41.668Z,75833.81
2022-11-17T07:37:09.832Z,75837.97
2022-11-17T07:39:37.684Z,75848.38
2022-11-17T07:42:05.657Z,75837.97
2022-11-17T07:44:35.084Z,75837.97
2022-11-17T07:47:03.309Z,75833.81
2022-11-17T07:49:30.995Z,75837.97
2022-11-17T07:51:59.455Z,75831.72
2022-11-17T07:54:27.352Z,75837.97
2022-11-17T07:56:55.312Z,75835.88
2022-11-17T07:59:23.246Z,75837.97
2022-11-17T08:01:52.688Z,75846.28
2022-11-17T08:04:20.495Z,75837.97
2022-11-17T08:06:48.711Z,75842.13
2022-11-17T08:09:17.023Z,75825.50
2022-11-17T08:11:45.089Z,75823.41
2022-11-17T08:14:12.943Z,75821.34
2022-11-17T08:16:40.920Z,75825.50
2022-11-17T08:19:11.908Z,75829.66
2022-11-17T08:21:41.029Z,75840.06
2022-11-17T08:24:09.362Z,75844.22
2022-11-17T08:26:37.342Z,75848.38
2022-11-17T08:29:05.313Z,75858.75
2022-11-17T08:31:33.921Z,75854.59
2022-11-17T08:34:01.615Z,75852.53
2022-11-17T08:36:31.503Z,75860.84
2022-11-17T08:38:59.308Z,75854.59
2022-11-17T08:41:27.336Z,75846.28
2022-11-17T08:43:55.384Z,75865.00
2022-11-17T08:46:23.433Z,75856.69
2022-11-17T08:48:56.851Z,75858.75
2022-11-17T08:51:27.324Z,75860.84
2022-11-17T08:53:56.767Z,75856.69
2022-11-17T08:56:24.735Z,75862.91
2022-11-17T08:58:52.636Z,75860.84
2022-11-17T09:01:21.260Z,75858.75
2022-11-17T09:03:49.160Z,75862.91
2022-11-17T09:06:18.216Z,75881.63
2022-11-17T09:08:47.400Z,75879.56
2022-11-17T09:11:17.135Z,75879.56
2022-11-17T09:13:46.788Z,75867.06
2022-11-17T09:16:15.843Z,75867.06
2022-11-17T09:18:44.438Z,75875.38
2022-11-17T09:21:15.087Z,75879.56
2022-11-17T09:23:43.527Z,75879.56
2022-11-17T09:26:13.842Z,75858.75
2022-11-17T09:28:43.925Z,75865.00
2022-11-17T09:31:13.969Z,75852.53
2022-11-17T09:33:42.515Z,75858.75
2022-11-17T09:36:11.416Z,75850.44
2022-11-17T09:38:39.832Z,75846.28
2022-11-17T09:41:21.864Z,75867.06
2022-11-17T09:44:05.716Z,75858.75
2022-11-17T09:46:50.976Z,75858.75
2022-11-17T09:49:31.873Z,75871.22
2022-11-17T09:52:06.341Z,75862.91
2022-11-17T09:54:41.985Z,75854.59
2022-11-17T09:57:22.860Z,75854.59
2022-11-17T10:00:03.315Z,75852.53
2022-11-17T10:02:32.559Z,75840.06
2022-11-17T10:05:01.541Z,75846.28
2022-11-17T10:07:32.699Z,75833.81
2022-11-17T10:10:02.569Z,75815.09
2022-11-17T10:12:37.148Z,75815.09
2022-11-17T10:15:22.061Z,75817.19
2022-11-17T10:17:51.613Z,75833.81
2022-11-17T10:20:19.624Z,75829.66
2022-11-17T10:22:48.909Z,75829.66
2022-11-17T10:25:23.324Z,75835.88
2022-11-17T10:27:54.251Z,75825.50
2022-11-17T10:30:24.962Z,75848.38
2022-11-17T10:32:55.042Z,75858.75
2022-11-17T10:35:24.484Z,75867.06
2022-11-17T10:37:55.558Z,75854.59
2022-11-17T10:40:26.085Z,75858.75
2022-11-17T10:43:00.825Z,75858.75
2022-11-17T10:45:30.434Z,75881.63
2022-11-17T10:48:21.349Z,75879.56
2022-11-17T10:50:54.189Z,75858.75
2022-11-17T10:53:25.848Z,75879.56
2022-11-17T10:56:01.032Z,75871.22
2022-11-17T10:58:30.599Z,75858.75
2022-11-17T11:01:02.261Z,75848.38
2022-11-17T11:03:32.495Z,75858.75
2022-11-17T11:06:26.734Z,75867.06
2022-11-17T11:08:58.223Z,75871.22
2022-11-17T11:11:39.040Z,75892.03
2022-11-17T11:14:14.358Z,75896.19
2022-11-17T11:16:48.264Z,75892.03
2022-11-17T11:19:19.496Z,75892.03
2022-11-17T11:22:21.731Z,75883.72
2022-11-17T11:24:57.935Z,75896.19
2022-11-17T11:27:38.480Z,75904.50
2022-11-17T11:30:10.672Z,75900.34
2022-11-17T11:32:46.500Z,75900.34
2022-11-17T11:35:41.776Z,75892.03
2022-11-17T11:38:21.999Z,75900.34
2022-11-17T11:41:11.044Z,75887.88
2022-11-17T11:43:48.383Z,75881.63
2022-11-17T11:46:23.995Z,75892.03
2022-11-17T11:48:58.074Z,75900.34
2022-11-17T11:51:30.059Z,75892.03
2022-11-17T11:54:04.879Z,75887.88
2022-11-17T11:56:37.193Z,75908.66
2022-11-17T11:59:08.781Z,75925.28
2022-11-17T12:01:46.013Z,75910.72
2022-11-17T12:04:28.790Z,75912.81
2022-11-17T12:07:03.830Z,75912.81
2022-11-17T12:09:52.635Z,75904.50
2022-11-17T12:12:29.637Z,75902.41
2022-11-17T12:15:09.747Z,75908.66
2022-11-17T12:17:38.436Z,75898.25
2022-11-17T12:20:48.621Z,75896.19
2022-11-17T12:23:24.911Z,75904.50
2022-11-17T12:25:55.266Z,75906.56
2022-11-17T12:28:30.424Z,75912.81
2022-11-17T12:31:05.120Z,75902.41
2022-11-17T12:34:10.372Z,75896.19
2022-11-17T12:36:40.024Z,75889.94
2022-11-17T12:39:47.655Z,75875.38
2022-11-17T12:42:15.615Z,75892.03
2022-11-17T12:44:44.872Z,75894.09
2022-11-17T12:47:19.552Z,75896.19
2022-11-17T12:49:56.894Z,75910.72
2022-11-17T12:52:35.972Z,75906.56
2022-11-17T12:55:16.328Z,75912.81
2022-11-17T12:57:47.261Z,75902.41
2022-11-17T13:00:20.748Z,75908.66
2022-11-17T13:03:02.865Z,75921.13
2022-11-17T13:05:31.536Z,75919.03
2022-11-17T13:08:12.740Z,75919.03
2022-11-17T13:10:41.580Z,75919.03
2022-11-17T13:13:14.155Z,75916.97
2022-11-17T13:15:43.961Z,75912.81
2022-11-17T13:18:19.359Z,75921.13
2022-11-17T13:20:49.273Z,75925.28
2022-11-17T13:23:23.004Z,75929.44
2022-11-17T13:25:51.752Z,75925.28
2022-11-17T13:28:31.104Z,75925.28
2022-11-17T13:31:00.352Z,75933.59
2022-11-17T13:33:30.932Z,75916.97
2022-11-17T13:36:17.942Z,75933.59
2022-11-17T13:38:51.640Z,75929.44
2022-11-17T13:41:21.300Z,75933.59
2022-11-17T13:43:50.771Z,75933.59
2022-11-17T13:46:18.502Z,75937.75
2022-11-17T13:48:48.643Z,75946.06
2022-11-17T13:51:29.929Z,75944.00
2022-11-17T13:54:01.790Z,75964.78
2022-11-17T13:56:36.169Z,75946.06
2022-11-17T13:59:07.617Z,75950.22
2022-11-17T14:01:35.355Z,75941.91
2022-11-17T14:04:19.608Z,75935.69
2022-11-17T14:06:56.747Z,75941.91
2022-11-17T14:09:27.555Z,75948.16
2022-11-17T14:11:55.895Z,75950.22
2022-11-17T14:14:33.485Z,75941.91
2022-11-17T14:17:12.431Z,75937.75
2022-11-17T14:19:41.785Z,75931.53
2022-11-17T14:22:31.435Z,75935.69
2022-11-17T14:25:01.787Z,75946.06
2022-11-17T14:27:41.520Z,75946.06
2022-11-17T14:30:14.377Z,75939.84
2022-11-17T14:32:43.756Z,75946.06
2022-11-17T14:35:14.182Z,75950.22
2022-11-17T14:37:42.553Z,75954.38
2022-11-17T14:40:16.420Z,75960.63
2022-11-17T14:42:44.376Z,75975.19
2022-11-17T14:45:14.314Z,75975.19
2022-11-17T14:47:42.776Z,75960.63
2022-11-17T14:50:14.124Z,75950.22
2022-11-17T14:52:42.437Z,75941.91
2022-11-17T14:55:11.071Z,75948.16
2022-11-17T14:57:40.124Z,75954.38
2022-11-17T15:00:13.450Z,75946.06
2022-11-17T15:02:44.316Z,75941.91
2022-11-17T15:05:12.968Z,75956.47
2022-11-17T15:07:40.901Z,75944.00
2022-11-17T15:10:10.280Z,75950.22
2022-11-17T15:12:39.632Z,75937.75
2022-11-17T15:15:08.952Z,75954.38
2022-11-17T15:17:36.828Z,75948.16
2022-11-17T15:20:05.983Z,75946.06
2022-11-17T15:22:33.757Z,75941.91
2022-11-17T15:25:01.843Z,75954.38
2022-11-17T15:27:29.663Z,75958.53
2022-11-17T15:29:58.938Z,75954.38
2022-11-17T15:32:26.765Z,75958.53
2022-11-17T15:34:54.817Z,75956.47
2022-11-17T15:37:22.527Z,75954.38
2022-11-17T15:39:50.619Z,75941.91
2022-11-17T15:42:18.422Z,75952.31
2022-11-17T15:44:46.392Z,75946.06
2022-11-17T15:47:15.549Z,75958.53
2022-11-17T15:49:43.632Z,75950.22
2022-11-17T15:52:11.319Z,75948.16
2022-11-17T15:54:39.372Z,75946.06
2022-11-17T15:57:07.271Z,75946.06
2022-11-17T15:59:35.218Z,75946.06
2022-11-17T16:02:09.119Z,75929.44
2022-11-17T16:04:38.593Z,75933.59
2022-11-17T16:07:06.354Z,75929.44
2022-11-17T16:09:34.959Z,75929.44
2022-11-17T16:12:03.177Z,75929.44
2022-11-17T16:14:31.341Z,75929.44
2022-11-17T16:16:59.647Z,75933.59
2022-11-17T16:19:27.743Z,75933.59
2022-11-17T16:21:56.952Z,75931.53
2022-11-17T16:24:24.912Z,75939.84
2022-11-17T16:26:52.777Z,75952.31
2022-11-17T16:29:20.952Z,75946.06
2022-11-17T16:31:49.062Z,75941.91
2022-11-17T16:34:18.019Z,75946.06
2022-11-17T16:36:46.086Z,75939.84
2022-11-17T16:39:17.809Z,75954.38
2022-11-17T16:41:46.420Z,75960.63
2022-11-17T16:44:16.731Z,75966.84
2022-11-17T16:46:46.129Z,75975.19
2022-11-17T16:49:16.566Z,75971.03
2022-11-17T16:51:48.655Z,75971.03
2022-11-17T16:54:18.750Z,75966.84
2022-11-17T16:56:46.757Z,75964.78
2022-11-17T16:59:15.671Z,75966.84
2022-11-17T17:01:44.109Z,75964.78
2022-11-17T17:04:13.092Z,75962.69
2022-11-17T17:06:41.803Z,75952.31
2022-11-17T17:09:11.992Z,75952.31
2022-11-17T17:11:41.591Z,75962.69
2022-11-17T17:14:13.007Z,75979.34
2022-11-17T17:16:41.064Z,75971.03
2022-11-17T17:19:11.536Z,75966.84
2022-11-17T17:21:40.781Z,75966.84
2022-11-17T17:24:09.727Z,75958.53
2022-11-17T17:26:39.154Z,75971.03
2022-11-17T17:29:08.725Z,75973.09
2022-11-17T17:31:38.303Z,75962.69
2022-11-17T17:34:07.150Z,75954.38
2022-11-17T17:36:37.144Z,75960.63
2022-11-17T17:39:06.088Z,75966.84
2022-11-17T17:41:38.804Z,75971.03
2022-11-17T17:44:09.483Z,75987.66
2022-11-17T17:46:38.727Z,75987.66
2022-11-17T17:49:07.173Z,75985.56
2022-11-17T17:51:39.880Z,75983.50
2022-11-17T17:54:08.747Z,75983.50
2022-11-17T17:56:36.739Z,75971.03
2022-11-17T17:59:04.734Z,75962.69
2022-11-17T18:01:33.919Z,75954.38
2022-11-17T18:04:04.854Z,75954.38
2022-11-17T18:06:37.102Z,75954.38
2022-11-17T18:09:05.516Z,75948.16
2022-11-17T18:11:33.701Z,75946.06
2022-11-17T18:14:01.766Z,75962.69
2022-11-17T18:16:31.396Z,75950.22
2022-11-17T18:19:03.371Z,75950.22
2022-11-17T18:21:32.024Z,75925.28
2022-11-17T18:24:01.972Z,75931.53
2022-11-17T18:26:31.434Z,75939.84
2022-11-17T18:29:02.442Z,75927.38
2022-11-17T18:31:32.249Z,75923.19
2022-11-17T18:34:03.732Z,75925.28
2022-11-17T18:36:31.594Z,75937.75
2022-11-17T18:38:59.838Z,75929.44
2022-11-17T18:41:30.547Z,75937.75
2022-11-17T18:43:58.891Z,75937.75
2022-11-17T18:46:28.800Z,75925.28
2022-11-17T18:48:57.473Z,75916.97
2022-11-17T18:51:28.721Z,75904.50
2022-11-17T18:53:58.382Z,75925.28
2022-11-17T18:56:27.734Z,75914.88
2022-11-17T18:58:56.024Z,75933.59
2022-11-17T19:01:25.780Z,75929.44
2022-11-17T19:03:55.082Z,75916.97
2022-11-17T19:06:25.531Z,75931.53
2022-11-17T19:08:54.945Z,75950.22
2022-11-17T19:11:23.871Z,75946.06
2022-11-17T19:13:52.237Z,75946.06
2022-11-17T19:16:21.700Z,75950.22
2022-11-17T19:18:51.821Z,75950.22
2022-11-17T19:21:21.042Z,75954.38
2022-11-17T19:23:52.066Z,75968.94
2022-11-17T19:26:23.501Z,75971.03
2022-11-17T19:28:51.953Z,75956.47
2022-11-17T19:31:20.956Z,75956.47
2022-11-17T19:33:50.087Z,75946.06
2022-11-17T19:36:19.659Z,75958.53
2022-11-17T19:38:49.738Z,75954.38
2022-11-17T19:41:19.998Z,75956.47
2022-11-17T19:43:49.827Z,75950.22
2022-11-17T19:46:18.467Z,75944.00
2022-11-17T19:48:46.635Z,75941.91
2022-11-17T19:51:17.483Z,75941.91
2022-11-17T19:53:45.471Z,75950.22
2022-11-17T19:56:13.678Z,75944.00
2022-11-17T19:58:42.008Z,75946.06
2022-11-17T20:01:13.210Z,75950.22
2022-11-17T20:03:42.287Z,75952.31
2022-11-17T20:06:11.631Z,75954.38
2022-11-17T20:08:40.216Z,75950.22
2022-11-17T20:11:09.928Z,75939.84
2022-11-17T20:13:38.871Z,75941.91
2022-11-17T20:16:12.459Z,75937.75
2022-11-17T20:18:43.455Z,75950.22
2022-11-17T20:21:13.835Z,75950.22
2022-11-17T20:23:43.412Z,75946.06
2022-11-17T20:26:13.689Z,75950.22
2022-11-17T20:28:42.123Z,75941.91
2022-11-17T20:31:11.732Z,75929.44
2022-11-17T20:33:40.468Z,75929.44
2022-11-17T20:36:12.325Z,75929.44
2022-11-17T20:38:40.438Z,75935.69
2022-11-17T20:41:08.807Z,75933.59
2022-11-17T20:43:37.086Z,75925.28
2022-11-17T20:46:05.375Z,75921.13
2022-11-17T20:48:35.239Z,75912.81
2022-11-17T20:51:05.444Z,75916.97
2022-11-17T20:53:35.313Z,75929.44
2022-11-17T20:56:05.877Z,75921.13
2022-11-17T20:58:34.817Z,75925.28
2022-11-17T21:01:08.297Z,75923.19
2022-11-17T21:03:37.199Z,75912.81
2022-11-17T21:06:05.738Z,75925.28
2022-11-17T21:08:36.759Z,75916.97
2022-11-17T21:11:06.031Z,75908.66
2022-11-17T21:13:35.354Z,75923.19
2022-11-17T21:16:08.967Z,75916.97
2022-11-17T21:18:38.306Z,75910.72
2022-11-17T21:21:08.931Z,75919.03
2022-11-17T21:23:39.759Z,75908.66
2022-11-17T21:26:08.480Z,75900.34
2022-11-17T21:28:37.255Z,75898.25
2022-11-17T21:31:08.444Z,75900.34
2022-11-17T21:33:36.801Z,75896.19
2022-11-17T21:36:06.711Z,75885.78
2022-11-17T21:38:34.978Z,75892.03
2022-11-17T21:41:05.216Z,75879.56
2022-11-17T21:43:36.629Z,75883.72
2022-11-17T21:46:05.096Z,75887.88
2022-11-17T21:48:33.448Z,75883.72
2022-11-17T21:51:01.239Z,75875.38
2022-11-17T21:53:29.766Z,75871.22
2022-11-17T21:56:01.249Z,75879.56
2022-11-17T21:58:31.207Z,75877.47
2022-11-17T22:00:59.396Z,75885.78
2022-11-17T22:03:27.572Z,75879.56
2022-11-17T22:06:00.969Z,75871.22
2022-11-17T22:08:30.392Z,75887.88
2022-11-17T22:10:58.210Z,75877.47
2022-11-17T22:13:26.190Z,75871.22
2022-11-17T22:15:55.522Z,75867.06
2022-11-17T22:18:23.468Z,75862.91
2022-11-17T22:20:52.319Z,75867.06
2022-11-17T22:23:20.471Z,75871.22
2022-11-17T22:25:54.415Z,75869.16
2022-11-17T22:28:22.920Z,75871.22
2022-11-17T22:30:50.855Z,75858.75
2022-11-17T22:33:21.320Z,75871.22
2022-11-17T22:35:50.119Z,75865.00
2022-11-17T22:38:18.728Z,75848.38
2022-11-17T22:40:46.427Z,75862.91
2022-11-17T22:43:15.522Z,75867.06
2022-11-17T22:45:43.655Z,75871.22
2022-11-17T22:48:11.799Z,75871.22
2022-11-17T22:50:41.160Z,75862.91
2022-11-17T22:53:09.098Z,75856.69
2022-11-17T22:55:37.282Z,75850.44
2022-11-17T22:58:05.409Z,75852.53
2022-11-17T23:00:33.115Z,75844.22
2022-11-17T23:03:01.271Z,75840.06
2022-11-17T23:05:29.339Z,75842.13
2022-11-17T23:07:58.610Z,75844.22
2022-11-17T23:10:26.556Z,75842.13
2022-11-17T23:12:54.871Z,75840.06
2022-11-17T23:15:23.268Z,75833.81
2022-11-17T23:17:51.225Z,75842.13
2022-11-17T23:20:19.248Z,75842.13
2022-11-17T23:22:47.206Z,75837.97
2022-11-17T23:25:16.255Z,75829.66
2022-11-17T23:27:44.356Z,75833.81
2022-11-17T23:30:13.595Z,75837.97
2022-11-17T23:32:41.652Z,75833.81
2022-11-17T23:35:10.216Z,75846.28
2022-11-17T23:37:38.201Z,75846.28
2022-11-17T23:40:06.972Z,75846.28
2022-11-17T23:42:41.604Z,75842.13
2022-11-17T23:45:12.653Z,75831.72
2022-11-17T23:47:40.929Z,75835.88
2022-11-17T23:50:09.526Z,75835.88
2022-11-17T23:52:37.591Z,75846.28
2022-11-17T23:55:05.972Z,75846.28
2022-11-17T23:57:33.911Z,75846.28
